createdAt,value
2023-06-09T00:02:17.117Z,15.00
2023-06-09T00:07:18.732Z,14.75
2023-06-09T00:12:20.315Z,18.70
2023-06-09T00:17:25.446Z,13.73
2023-06-09T00:22:27.914Z,17.17
2023-06-09T00:27:30.543Z,19.00
2023-06-09T00:32:32.255Z,17.17
2023-06-09T00:37:33.936Z,14.23
2023-06-09T00:42:35.500Z,16.63
2023-06-09T00:47:37.237Z,11.48
2023-06-09T00:52:38.807Z,12.82
2023-06-09T00:57:40.864Z,18.05
2023-06-09T01:02:42.478Z,15.55
2023-06-09T01:07:51.564Z,15.88
2023-06-09T01:13:25.041Z,15.32
2023-06-09T01:18:31.940Z,21.00
2023-06-09T01:23:52.670Z,17.10
2023-06-09T01:28:56.311Z,18.73
2023-06-09T01:33:58.203Z,17.95
2023-06-09T01:38:59.856Z,18.33
2023-06-09T01:44:01.405Z,17.48
2023-06-09T01:49:02.876Z,16.10
2023-06-09T01:54:12.901Z,16.00
2023-06-09T01:59:21.801Z,20.17
2023-06-09T02:04:26.543Z,22.77
2023-06-09T02:09:28.186Z,22.90
2023-06-09T02:14:34.194Z,19.23
2023-06-09T02:19:39.830Z,16.80
2023-06-09T02:24:41.407Z,19.80
2023-06-09T02:29:43.031Z,21.02
2023-06-09T02:34:46.297Z,15.25
2023-06-09T02:39:47.880Z,21.65
2023-06-09T02:44:49.888Z,15.95
2023-06-09T02:49:51.567Z,21.92
2023-06-09T02:54:53.099Z,21.50
2023-06-09T02:59:55.130Z,18.45
2023-06-09T03:04:57.810Z,21.40
2023-06-09T03:10:01.068Z,17.48
2023-06-09T03:15:02.650Z,13.32
2023-06-09T03:20:07.349Z,22.17
2023-06-09T03:25:10.214Z,20.60
2023-06-09T03:30:12.548Z,20.40
2023-06-09T03:35:14.269Z,20.50
2023-06-09T03:40:16.439Z,22.58
2023-06-09T03:45:18.080Z,29.40
2023-06-09T03:50:19.821Z,23.80
2023-06-09T03:55:23.611Z,17.52
2023-06-09T04:00:25.284Z,20.90
2023-06-09T04:05:26.965Z,23.83
2023-06-09T04:10:28.524Z,22.77
2023-06-09T04:15:30.094Z,23.17
2023-06-09T04:20:31.624Z,19.90
2023-06-09T04:25:35.876Z,20.90
2023-06-09T04:30:39.272Z,18.17
2023-06-09T04:35:42.295Z,22.08
2023-06-09T04:40:46.626Z,21.25
2023-06-09T04:45:48.218Z,19.42
2023-06-09T04:50:50.725Z,19.85
2023-06-09T04:55:53.313Z,17.08
2023-06-09T05:00:54.883Z,24.50
2023-06-09T05:05:56.440Z,15.85
2023-06-09T05:10:59.067Z,19.85
2023-06-09T05:16:00.751Z,20.85
2023-06-09T05:21:02.343Z,17.00
2023-06-09T05:26:03.945Z,20.83
2023-06-09T05:31:05.495Z,23.15
2023-06-09T05:36:07.790Z,20.65
2023-06-09T05:41:09.332Z,20.85
2023-06-09T05:46:10.909Z,17.98
2023-06-09T05:51:13.728Z,15.13
2023-06-09T05:56:18.118Z,17.40
2023-06-09T06:01:21.015Z,21.38
2023-06-09T06:06:22.690Z,17.42
2023-06-09T06:11:24.448Z,18.55
2023-06-09T06:16:26.013Z,17.13
2023-06-09T06:21:27.520Z,18.85
2023-06-09T06:26:30.175Z,19.17
2023-06-09T06:31:32.283Z,20.15
2023-06-09T06:36:34.175Z,19.55
2023-06-09T06:41:35.687Z,16.45
2023-06-09T06:46:37.309Z,20.75
2023-06-09T06:51:41.300Z,17.02
2023-06-09T06:56:42.861Z,20.05
2023-06-09T07:01:44.418Z,16.05
2023-06-09T07:06:46.960Z,17.60
2023-06-09T07:11:48.549Z,17.88
2023-06-09T07:16:50.107Z,18.60
2023-06-09T07:21:51.622Z,21.70
2023-06-09T07:26:54.422Z,20.10
2023-06-09T07:31:56.120Z,16.15
2023-06-09T07:36:58.122Z,20.60
2023-06-09T07:41:59.680Z,15.88
2023-06-09T07:47:01.184Z,17.35
2023-06-09T07:52:10.034Z,18.30
2023-06-09T07:57:22.730Z,20.00
2023-06-09T08:02:24.821Z,19.58
2023-06-09T08:07:27.409Z,22.40
2023-06-09T08:12:28.931Z,21.77
2023-06-09T08:17:30.584Z,19.85
2023-06-09T08:22:32.189Z,23.05
2023-06-09T08:27:34.044Z,20.50
2023-06-09T08:32:36.616Z,19.23
2023-06-09T08:37:38.547Z,21.40
2023-06-09T08:42:40.878Z,21.15
2023-06-09T08:47:47.807Z,19.08
2023-06-09T08:52:49.959Z,16.50
2023-06-09T08:57:52.441Z,18.60
2023-06-09T09:02:54.216Z,19.95
2023-06-09T09:07:55.754Z,20.63
2023-06-09T09:12:57.438Z,20.63
2023-06-09T09:17:58.997Z,23.58
2023-06-09T09:23:00.616Z,14.10
2023-06-09T09:28:07.507Z,22.33
2023-06-09T09:38:21.077Z,19.73
2023-06-09T09:43:25.930Z,14.30
2023-06-09T09:48:27.676Z,19.65
2023-06-09T09:53:29.247Z,17.00
2023-06-09T09:58:35.829Z,14.43
2023-06-09T10:03:45.438Z,17.98
2023-06-09T10:08:47.922Z,16.50
2023-06-09T10:13:49.620Z,15.90
2023-06-09T10:18:51.985Z,15.32
2023-06-09T10:23:54.249Z,17.83
2023-06-09T10:28:56.013Z,16.55
2023-06-09T10:33:57.984Z,14.10
2023-06-09T10:39:15.197Z,13.75
2023-06-09T10:44:35.268Z,15.55
2023-06-09T10:49:40.092Z,16.38
2023-06-09T10:54:41.781Z,17.05
2023-06-09T10:59:49.066Z,14.85
2023-06-09T11:04:53.391Z,13.70
2023-06-09T11:09:57.892Z,18.42
2023-06-09T11:15:00.460Z,16.63
2023-06-09T11:20:13.317Z,13.50
2023-06-09T11:25:18.165Z,12.45
2023-06-09T11:30:20.290Z,10.80
2023-06-09T11:35:31.056Z,12.32
2023-06-09T11:40:38.565Z,9.98
2023-06-09T11:45:40.149Z,12.95
2023-06-09T11:50:48.005Z,12.90
2023-06-09T11:55:59.665Z,10.55
2023-06-09T12:01:01.180Z,10.13
2023-06-09T12:06:02.949Z,10.88
2023-06-09T12:11:04.676Z,12.55
2023-06-09T12:16:06.296Z,11.25
2023-06-09T12:21:10.438Z,9.50
2023-06-09T12:26:14.360Z,11.02
2023-06-09T12:31:16.055Z,9.93
2023-06-09T12:36:17.914Z,9.98
2023-06-09T12:41:19.740Z,10.00
2023-06-09T12:46:27.258Z,10.93
2023-06-09T12:51:29.702Z,11.15
2023-06-09T12:56:32.054Z,9.90
2023-06-09T13:01:33.725Z,10.25
2023-06-09T13:06:35.879Z,9.48
2023-06-09T13:11:37.810Z,10.07
2023-06-09T13:16:39.407Z,8.48
2023-06-09T13:21:44.958Z,10.73
2023-06-09T13:26:49.179Z,8.50
2023-06-09T13:31:50.957Z,8.77
2023-06-09T13:36:53.793Z,8.60
2023-06-09T13:41:55.309Z,9.40
2023-06-09T13:46:56.846Z,8.57
2023-06-09T13:51:58.356Z,11.02
2023-06-09T13:56:59.843Z,5.50
2023-06-09T14:02:01.506Z,11.20
2023-06-09T14:07:03.748Z,6.32
2023-06-09T14:12:10.039Z,6.18
2023-06-09T14:17:12.119Z,11.68
2023-06-09T14:22:13.698Z,10.02
2023-06-09T14:27:15.370Z,8.68
2023-06-09T14:32:16.916Z,11.15
2023-06-09T14:37:18.456Z,8.15
2023-06-09T14:42:20.062Z,9.48
2023-06-09T14:47:21.651Z,7.28
2023-06-09T14:52:23.210Z,11.65
2023-06-09T14:57:24.766Z,7.82
2023-06-09T15:02:26.488Z,9.80
2023-06-09T15:07:28.017Z,6.75
2023-06-09T15:12:29.612Z,5.80
2023-06-09T15:17:35.471Z,7.63
2023-06-09T15:22:39.332Z,7.32
2023-06-09T15:27:45.592Z,12.52
2023-06-09T15:32:49.439Z,7.65
2023-06-09T15:37:51.062Z,9.57
2023-06-09T15:42:52.603Z,6.45
2023-06-09T15:47:54.554Z,9.57
2023-06-09T15:52:56.243Z,8.82
2023-06-09T15:57:58.244Z,8.93
2023-06-09T16:03:05.116Z,8.63
2023-06-09T16:08:09.294Z,8.45
2023-06-09T16:13:11.105Z,7.85
2023-06-09T16:18:14.243Z,11.77
2023-06-09T16:23:16.023Z,16.02
2023-06-09T16:28:17.601Z,12.30
2023-06-09T16:33:19.246Z,13.43
2023-06-09T16:38:20.816Z,12.95
2023-06-09T16:43:22.382Z,14.65
2023-06-09T16:48:23.896Z,13.02
2023-06-09T16:53:25.472Z,10.18
2023-06-09T16:58:27.137Z,12.32
2023-06-09T17:03:28.786Z,12.88
2023-06-09T17:08:30.419Z,8.63
2023-06-09T17:13:32.041Z,13.77
2023-06-09T17:18:33.603Z,13.90
2023-06-09T17:23:35.213Z,14.70
2023-06-09T17:28:36.858Z,15.15
2023-06-09T17:33:38.416Z,8.77
2023-06-09T17:38:39.984Z,9.68
2023-06-09T17:43:41.541Z,9.15
2023-06-09T17:48:44.918Z,12.55
2023-06-09T17:53:46.547Z,9.38
2023-06-09T17:58:48.124Z,9.90
2023-06-09T18:03:49.672Z,9.85
2023-06-09T18:08:51.504Z,10.07
2023-06-09T18:13:53.402Z,11.27
2023-06-09T18:18:55.011Z,6.47
2023-06-09T18:23:56.943Z,13.38
2023-06-09T18:28:58.743Z,13.15
2023-06-09T18:34:00.556Z,11.10
2023-06-09T18:39:02.221Z,14.13
2023-06-09T18:44:15.561Z,22.35
2023-06-09T18:49:17.175Z,8.18
2023-06-09T18:54:18.763Z,13.60
2023-06-09T18:59:20.739Z,11.38
2023-06-09T19:04:22.767Z,10.82
2023-06-09T19:09:24.455Z,11.10
2023-06-09T19:14:26.024Z,11.40
2023-06-09T19:19:27.537Z,11.02
2023-06-09T19:24:29.100Z,11.82
2023-06-09T19:29:30.995Z,11.82
2023-06-09T19:34:32.678Z,10.40
2023-06-09T19:39:34.312Z,12.27
2023-06-09T19:44:35.853Z,10.65
2023-06-09T19:49:37.422Z,10.25
2023-06-09T19:54:39.627Z,8.23
2023-06-09T19:59:41.248Z,9.73
2023-06-09T20:04:42.978Z,9.88
2023-06-09T20:09:44.917Z,10.15
2023-06-09T20:14:47.455Z,10.00
2023-06-09T20:19:49.269Z,12.55
2023-06-09T20:24:50.960Z,11.95
2023-06-09T20:29:52.634Z,15.05
2023-06-09T20:34:54.177Z,14.55
2023-06-09T20:39:56.068Z,16.33
2023-06-09T20:44:57.600Z,14.90
2023-06-09T20:49:59.209Z,16.13
2023-06-09T20:55:01.199Z,11.68
2023-06-09T21:00:03.512Z,17.00
2023-06-09T21:05:06.378Z,12.57
2023-06-09T21:10:08.518Z,17.60
2023-06-09T21:15:10.794Z,21.52
2023-06-09T21:20:13.449Z,12.50
2023-06-09T21:25:16.482Z,11.77
2023-06-09T21:30:18.066Z,12.30
2023-06-09T21:35:19.645Z,13.82
2023-06-09T21:40:21.244Z,10.07
2023-06-09T21:45:24.162Z,9.65
2023-06-09T21:50:25.757Z,10.90
2023-06-09T21:55:27.592Z,12.48
2023-06-09T22:00:30.426Z,14.20
2023-06-09T22:05:31.970Z,9.70
2023-06-09T22:10:35.497Z,10.27
2023-06-09T22:15:37.023Z,11.18
2023-06-09T22:20:38.799Z,14.88
2023-06-09T22:25:40.411Z,12.40
2023-06-09T22:30:42.289Z,11.80
2023-06-09T22:35:44.015Z,15.43
2023-06-09T22:40:46.212Z,14.55
2023-06-09T22:45:47.843Z,9.15
2023-06-09T22:50:49.412Z,9.07
2023-06-09T22:55:51.715Z,14.30
2023-06-09T23:00:53.258Z,11.02
2023-06-09T23:05:56.988Z,10.50
2023-06-09T23:10:58.732Z,9.23
2023-06-09T23:16:00.393Z,12.05
2023-06-09T23:21:03.143Z,17.42
2023-06-09T23:26:05.263Z,9.95
2023-06-09T23:31:07.382Z,6.32
2023-06-09T23:36:08.934Z,9.00
2023-06-09T23:41:10.430Z,13.63
2023-06-09T23:46:12.014Z,8.00
2023-06-09T23:51:13.647Z,8.25
2023-06-09T23:56:15.190Z,10.40
